Main page
METAR-TAF:

METAR-TAF

Airports :

South Alabama Regional Airport

Andalusia, Alabama, United States

latitude: 31-18-00N, longitude: 086-23-00W, elevation: 308 ft

Current weather observation

The report was made 15 minutes ago, at 17:56 UTC
Wind 14 mph from the West/Southwest with gusts up to 26 mph
Temperature 81°F
Humidity 51%
Pressure 30.02 in. Hg
Visibility: 10 miles
Scattered clouds at a height of 4200 ft
Broken clouds at a height of 5500 ft

METAR: K79J 281756Z AUTO 24012G23KT 10SM SCT042 BKN055 27/16 A3002 RMK AO2 PK WND 26032/1702 SLP160 T02670156 10267 20183 53002 TSNO

Time: 12:11 (18:11 UTC)


TAF: missing

Weather observations and forecasts of more than 4000 airports (METAR and TAF reports).

The available stations are represented by yellow and red dots on the map.

Hover mouse over dot to see the name of the station.

Then click to see weather observations and forecasts.

To change the map : click on the green buttons with a black cross to zoom in, on the green button with a dash to zoom out, or on the green arrows for adjacent maps.


METAR-TAF: